createdAt,value
2018-03-04T00:00:47.901Z,0
2018-03-04T00:01:33.057Z,0
2018-03-04T00:02:33.248Z,0
2018-03-04T00:03:47.923Z,0
2018-03-04T00:04:47.932Z,0
2018-03-04T00:05:33.277Z,0
2018-03-04T00:06:33.284Z,0
2018-03-04T00:07:47.959Z,0
2018-03-04T00:08:33.442Z,0
2018-03-04T00:09:47.972Z,0
2018-03-04T00:11:33.329Z,0
2018-03-04T00:12:32.825Z,0
2018-03-04T00:13:33.352Z,0
2018-03-04T00:14:33.352Z,0
2018-03-04T00:15:33.359Z,0
2018-03-04T00:16:33.371Z,0
2018-03-04T00:17:33.125Z,0
2018-03-04T00:18:33.130Z,0
2018-03-04T00:19:33.400Z,0
2018-03-04T00:20:33.404Z,0
2018-03-04T00:21:33.413Z,0
2018-03-04T00:22:47.831Z,0
2018-03-04T00:23:33.438Z,0
2018-03-04T00:24:48.099Z,0
2018-03-04T00:25:33.459Z,0
2018-03-04T00:26:33.205Z,0
2018-03-04T00:27:33.510Z,0
2018-03-04T00:28:33.478Z,0
2018-03-04T00:29:32.970Z,0
2018-03-04T00:30:33.491Z,0
2018-03-04T00:31:33.245Z,0
2018-03-04T00:32:32.996Z,0
2018-03-04T00:33:48.183Z,0
2018-03-04T00:34:33.266Z,0
2018-03-04T00:35:48.203Z,0
2018-03-04T00:36:33.550Z,0
2018-03-04T00:37:47.964Z,0
2018-03-04T00:38:33.400Z,0
2018-03-04T00:39:33.055Z,0
2018-03-04T00:40:48.236Z,0
2018-03-04T00:41:33.584Z,0
2018-03-04T00:43:33.349Z,0
2018-03-04T00:44:48.274Z,0
2018-03-04T00:45:33.628Z,0
2018-03-04T00:46:33.628Z,0
2018-03-04T00:47:33.634Z,0
2018-03-04T00:48:33.653Z,0
2018-03-04T00:49:33.406Z,0
2018-03-04T00:50:33.660Z,0
2018-03-04T00:51:33.666Z,0
2018-03-04T00:52:33.689Z,0
2018-03-04T00:53:48.114Z,0
2018-03-04T00:55:03.033Z,0
2018-03-04T00:55:33.498Z,0
2018-03-04T00:56:48.377Z,0
2018-03-04T00:57:33.725Z,0
2018-03-04T00:58:33.736Z,0
2018-03-04T00:59:33.490Z,0
2018-03-04T01:00:33.749Z,0
2018-03-04T01:01:33.752Z,0
2018-03-04T01:02:33.773Z,0
2018-03-04T01:03:33.514Z,0
2018-03-04T01:04:33.530Z,0
2018-03-04T01:05:33.793Z,0
2018-03-04T01:06:33.796Z,0
2018-03-04T01:07:33.554Z,0
2018-03-04T01:08:33.822Z,0
2018-03-04T01:09:33.827Z,0
2018-03-04T01:10:48.498Z,0
2018-03-04T01:11:33.328Z,0
2018-03-04T01:12:48.508Z,0
2018-03-04T01:13:33.599Z,0
2018-03-04T01:14:33.613Z,0
2018-03-04T01:15:33.875Z,0
2018-03-04T01:16:33.879Z,0
2018-03-04T01:17:33.948Z,0
2018-03-04T01:18:33.910Z,0
2018-03-04T01:20:33.915Z,0
2018-03-04T01:21:33.674Z,0
2018-03-04T01:22:33.936Z,0
2018-03-04T01:23:33.944Z,0
2018-03-04T01:24:33.535Z,0
2018-03-04T01:25:33.699Z,0
2018-03-04T01:26:48.481Z,0
2018-03-04T01:27:48.641Z,0
2018-03-04T01:28:48.395Z,0
2018-03-04T01:29:33.736Z,0
2018-03-04T01:30:33.998Z,0
2018-03-04T01:31:33.856Z,0
2018-03-04T01:32:34.024Z,0
2018-03-04T01:33:33.773Z,0
2018-03-04T01:34:34.037Z,0
2018-03-04T01:35:33.889Z,0
2018-03-04T01:36:34.052Z,0
2018-03-04T01:37:48.473Z,0
2018-03-04T01:38:34.072Z,0
2018-03-04T01:39:33.563Z,0
2018-03-04T01:40:33.837Z,0
2018-03-04T01:41:48.758Z,0
2018-03-04T01:42:48.773Z,0
2018-03-04T01:43:34.116Z,0
2018-03-04T01:44:34.115Z,0
2018-03-04T01:45:34.129Z,0
2018-03-04T01:47:33.892Z,0
2018-03-04T01:48:34.149Z,0
2018-03-04T01:49:34.163Z,0
2018-03-04T01:50:34.169Z,0
2018-03-04T01:51:34.178Z,0
2018-03-04T01:52:34.248Z,0
2018-03-04T01:53:34.197Z,0
2018-03-04T01:54:33.945Z,0
2018-03-04T01:55:34.211Z,0
2018-03-04T01:56:33.975Z,0
2018-03-04T01:58:48.394Z,0
2018-03-04T01:59:34.272Z,0
2018-03-04T02:00:48.937Z,0
2018-03-04T02:01:34.021Z,0
2018-03-04T02:02:34.271Z,0
2018-03-04T02:03:34.021Z,0
2018-03-04T02:04:33.782Z,0
2018-03-04T02:05:34.303Z,0
2018-03-04T02:06:34.415Z,0
2018-03-04T02:08:34.325Z,0
2018-03-04T02:09:34.077Z,0
2018-03-04T02:10:34.334Z,0
2018-03-04T02:11:34.348Z,0
2018-03-04T02:12:34.351Z,0
2018-03-04T02:13:48.776Z,0
2018-03-04T02:14:49.035Z,0
2018-03-04T02:15:34.385Z,0
2018-03-04T02:16:49.051Z,0
2018-03-04T02:17:34.400Z,0
2018-03-04T02:18:34.405Z,0
2018-03-04T02:19:49.109Z,0
2018-03-04T02:20:34.165Z,0
2018-03-04T02:21:34.177Z,0
2018-03-04T02:22:34.187Z,0
2018-03-04T02:23:34.450Z,0
2018-03-04T02:24:34.198Z,0
2018-03-04T02:25:34.462Z,0
2018-03-04T02:26:34.475Z,0
2018-03-04T02:28:34.484Z,0
2018-03-04T02:29:49.158Z,0
2018-03-04T02:30:34.268Z,0
2018-03-04T02:31:49.182Z,0
2018-03-04T02:32:34.534Z,0
2018-03-04T02:33:34.570Z,0
2018-03-04T02:34:34.048Z,0
2018-03-04T02:35:34.549Z,0
2018-03-04T02:36:34.696Z,0
2018-03-04T02:37:49.236Z,0
2018-03-04T02:38:34.582Z,0
2018-03-04T02:39:34.345Z,0
2018-03-04T02:41:34.610Z,0
2018-03-04T02:42:49.293Z,0
2018-03-04T02:43:34.648Z,0
2018-03-04T02:44:34.642Z,0
2018-03-04T02:45:49.300Z,0
2018-03-04T02:47:34.672Z,0
2018-03-04T02:48:34.415Z,0
2018-03-04T02:50:34.425Z,0
2018-03-04T02:52:49.111Z,0
2018-03-04T02:53:34.450Z,0
2018-03-04T02:54:34.208Z,0
2018-03-04T02:55:49.127Z,0
2018-03-04T02:56:34.488Z,0
2018-03-04T02:57:34.478Z,0
2018-03-04T02:58:48.893Z,0
2018-03-04T02:59:34.497Z,0
2018-03-04T03:00:34.911Z,0
2018-03-04T03:02:49.187Z,0
2018-03-04T03:03:49.197Z,0
2018-03-04T03:04:34.540Z,0
2018-03-04T03:05:34.286Z,0
2018-03-04T03:06:34.818Z,0
2018-03-04T03:07:34.577Z,0
2018-03-04T03:08:34.824Z,0
2018-03-04T03:09:34.580Z,0
2018-03-04T03:10:34.396Z,0
2018-03-04T03:11:34.601Z,0
2018-03-04T03:12:34.600Z,0
2018-03-04T03:13:49.274Z,0
2018-03-04T03:14:34.613Z,0
2018-03-04T03:15:49.648Z,0
2018-03-04T03:16:34.634Z,0
2018-03-04T03:17:49.049Z,0
2018-03-04T03:18:34.647Z,0
2018-03-04T03:19:34.721Z,0
2018-03-04T03:20:34.618Z,0
2018-03-04T03:21:34.924Z,0
2018-03-04T03:22:49.354Z,0
2018-03-04T03:26:49.639Z,0
2018-03-04T03:27:34.728Z,0
2018-03-04T03:28:49.396Z,0
2018-03-04T03:29:49.148Z,0
2018-03-04T03:30:35.013Z,0
2018-03-04T03:31:35.029Z,0
2018-03-04T03:33:34.775Z,0
2018-03-04T03:34:34.839Z,0
2018-03-04T03:35:49.451Z,0
2018-03-04T03:36:35.177Z,0
2018-03-04T03:37:34.805Z,0
2018-03-04T03:38:34.813Z,0
2018-03-04T03:39:35.079Z,0
2018-03-04T03:40:34.576Z,0
2018-03-04T03:41:34.582Z,0
2018-03-04T03:42:35.108Z,0
2018-03-04T03:43:34.610Z,0
2018-03-04T03:44:35.121Z,0
2018-03-04T03:45:35.122Z,0
2018-03-04T03:46:34.631Z,0
2018-03-04T03:47:49.810Z,0
2018-03-04T03:48:35.155Z,0
2018-03-04T03:49:49.568Z,0
2018-03-04T03:50:49.827Z,0
2018-03-04T03:51:34.921Z,0
2018-03-04T03:52:34.928Z,0
2018-03-04T03:54:34.954Z,0
2018-03-04T03:55:34.953Z,0
2018-03-04T03:56:35.314Z,0
2018-03-04T03:57:49.383Z,0
2018-03-04T03:58:35.010Z,0
2018-03-04T03:59:35.319Z,0
2018-03-04T04:00:34.996Z,0
2018-03-04T04:01:34.747Z,0
2018-03-04T04:02:35.275Z,0
2018-03-04T04:03:35.274Z,0
2018-03-04T04:04:49.692Z,0
2018-03-04T04:05:49.957Z,0
2018-03-04T04:06:35.316Z,0
2018-03-04T04:07:49.458Z,0
2018-03-04T04:08:35.311Z,0
2018-03-04T04:09:35.324Z,0
2018-03-04T04:10:35.080Z,0
2018-03-04T04:11:35.087Z,0
2018-03-04T04:12:35.353Z,0
2018-03-04T04:14:49.793Z,0
2018-03-04T04:15:50.041Z,0
2018-03-04T04:16:35.377Z,0
2018-03-04T04:17:35.138Z,0
2018-03-04T04:18:34.885Z,0
2018-03-04T04:19:49.812Z,0
2018-03-04T04:20:49.825Z,0
2018-03-04T04:21:35.418Z,0
2018-03-04T04:22:50.097Z,0
2018-03-04T04:23:35.178Z,0
2018-03-04T04:24:34.931Z,0
2018-03-04T04:25:35.462Z,0
2018-03-04T04:26:35.458Z,0
2018-03-04T04:27:35.491Z,0
2018-03-04T04:28:34.968Z,0
2018-03-04T04:29:35.478Z,0
2018-03-04T04:30:35.259Z,0
2018-03-04T04:31:34.989Z,0
2018-03-04T04:32:35.521Z,0
2018-03-04T04:33:35.281Z,0
2018-03-04T04:34:35.526Z,0
2018-03-04T04:35:35.534Z,0
2018-03-04T04:36:49.953Z,0
2018-03-04T04:37:50.215Z,0
2018-03-04T04:38:50.221Z,0
2018-03-04T04:39:49.972Z,0
2018-03-04T04:40:35.328Z,0
2018-03-04T04:41:35.323Z,0
2018-03-04T04:42:35.591Z,0
2018-03-04T04:43:35.342Z,0
2018-03-04T04:44:35.665Z,0
2018-03-04T04:46:35.623Z,0
2018-03-04T04:47:35.378Z,0
2018-03-04T04:48:35.636Z,0
2018-03-04T04:49:50.314Z,0
2018-03-04T04:50:35.397Z,0
2018-03-04T04:51:35.410Z,0
2018-03-04T04:53:05.007Z,0
2018-03-04T04:53:35.679Z,0
2018-03-04T04:54:35.428Z,0
2018-03-04T04:56:35.704Z,0
2018-03-04T04:57:35.711Z,0
2018-03-04T04:58:35.724Z,0
2018-03-04T04:59:35.752Z,0
2018-03-04T05:00:35.489Z,0
2018-03-04T05:01:35.495Z,0
2018-03-04T05:02:50.419Z,0
2018-03-04T05:03:35.757Z,0
2018-03-04T05:04:50.438Z,0
2018-03-04T05:05:35.777Z,0
2018-03-04T05:06:35.787Z,0
2018-03-04T05:07:49.947Z,0
2018-03-04T05:08:35.797Z,0
2018-03-04T05:09:50.475Z,0
2018-03-04T05:10:35.596Z,0
2018-03-04T05:11:50.233Z,0
2018-03-04T05:12:35.318Z,0
2018-03-04T05:13:35.330Z,0
2018-03-04T05:14:35.653Z,0
2018-03-04T05:15:50.528Z,0
2018-03-04T05:16:35.864Z,0
2018-03-04T05:17:35.618Z,0
2018-03-04T05:18:35.881Z,0
2018-03-04T05:19:35.635Z,0
2018-03-04T05:20:50.562Z,0
2018-03-04T05:21:35.906Z,0
2018-03-04T05:22:35.914Z,0
2018-03-04T05:23:50.584Z,0
2018-03-04T05:24:35.671Z,0
2018-03-04T05:25:50.601Z,0
2018-03-04T05:26:35.945Z,0
2018-03-04T05:27:50.621Z,0
2018-03-04T05:28:35.962Z,0
2018-03-04T05:29:35.715Z,0
2018-03-04T05:30:35.719Z,0
2018-03-04T05:31:35.732Z,0
2018-03-04T05:32:35.994Z,0
2018-03-04T05:33:50.508Z,0
2018-03-04T05:34:36.015Z,0
2018-03-04T05:35:36.075Z,0
2018-03-04T05:36:36.023Z,0
2018-03-04T05:37:50.441Z,0
2018-03-04T05:38:36.038Z,0
2018-03-04T05:39:50.718Z,0
2018-03-04T05:40:36.055Z,5
2018-03-04T05:41:50.732Z,5
2018-03-04T05:42:36.073Z,5
2018-03-04T05:43:35.827Z,5
2018-03-04T05:44:36.108Z,5
2018-03-04T05:45:36.090Z,5
2018-03-04T05:46:36.107Z,5
2018-03-04T05:47:36.116Z,5
2018-03-04T05:48:36.127Z,5
2018-03-04T05:49:50.802Z,10
2018-03-04T05:50:35.627Z,10
2018-03-04T05:51:36.146Z,10
2018-03-04T05:52:35.901Z,10
2018-03-04T05:53:50.575Z,10
2018-03-04T05:54:36.172Z,15
2018-03-04T05:56:36.189Z,15
2018-03-04T05:57:36.198Z,15
2018-03-04T05:58:36.203Z,15
2018-03-04T05:59:36.214Z,20
2018-03-04T06:00:36.224Z,20
2018-03-04T06:01:35.715Z,20
2018-03-04T06:02:35.722Z,20
2018-03-04T06:04:35.999Z,25
2018-03-04T06:05:35.757Z,25
2018-03-04T06:06:50.676Z,25
2018-03-04T06:07:36.020Z,30
2018-03-04T06:08:36.289Z,30
2018-03-04T06:09:35.780Z,30
2018-03-04T06:10:51.017Z,30
2018-03-04T06:11:50.973Z,35
2018-03-04T06:12:50.471Z,35
2018-03-04T06:13:50.732Z,35
2018-03-04T06:14:36.343Z,45
2018-03-04T06:15:36.340Z,45
2018-03-04T06:16:36.095Z,45
2018-03-04T06:17:36.369Z,55
2018-03-04T06:18:36.108Z,70
2018-03-04T06:19:36.378Z,90
2018-03-04T06:20:36.380Z,100
2018-03-04T06:21:36.132Z,120
2018-03-04T06:22:36.146Z,145
2018-03-04T06:23:36.404Z,185
2018-03-04T06:24:36.156Z,195
2018-03-04T06:25:36.420Z,205
2018-03-04T06:26:51.098Z,205
2018-03-04T06:28:36.243Z,220
2018-03-04T06:29:51.122Z,220
2018-03-04T06:30:51.131Z,210
2018-03-04T06:31:51.140Z,240
2018-03-04T06:33:36.630Z,270
2018-03-04T06:34:36.253Z,270
2018-03-04T06:35:36.516Z,280
2018-03-04T06:36:36.527Z,285
2018-03-04T06:37:36.544Z,280
2018-03-04T06:38:51.220Z,315
2018-03-04T06:39:36.315Z,340
2018-03-04T06:40:36.323Z,350
2018-03-04T06:41:51.255Z,365
2018-03-04T06:42:51.267Z,375
2018-03-04T06:43:36.608Z,360
2018-03-04T06:44:36.381Z,360
2018-03-04T06:45:51.043Z,370
2018-03-04T06:46:36.644Z,380
2018-03-04T06:47:36.508Z,390
2018-03-04T06:48:36.672Z,415
2018-03-04T06:49:36.690Z,445
2018-03-04T06:50:36.445Z,445
2018-03-04T06:51:36.722Z,420
2018-03-04T06:52:36.722Z,400
2018-03-04T06:53:36.492Z,405
2018-03-04T06:54:36.757Z,420
2018-03-04T06:55:51.438Z,430
2018-03-04T06:56:51.449Z,435
2018-03-04T06:57:36.794Z,440
2018-03-04T06:58:50.965Z,455
2018-03-04T07:00:51.499Z,480
2018-03-04T07:01:36.597Z,490
2018-03-04T07:03:36.623Z,510
2018-03-04T07:04:36.891Z,525
2018-03-04T07:05:36.656Z,560
2018-03-04T07:06:36.768Z,545
2018-03-04T07:07:36.938Z,530
2018-03-04T07:08:51.369Z,535
2018-03-04T07:09:36.968Z,530
2018-03-04T07:10:37.118Z,515
2018-03-04T07:11:37.005Z,510
2018-03-04T07:12:51.434Z,535
2018-03-04T07:13:37.077Z,565
2018-03-04T07:14:51.467Z,570
2018-03-04T07:15:51.472Z,550
2018-03-04T07:16:37.079Z,565
2018-03-04T07:17:51.507Z,560
2018-03-04T07:18:37.128Z,575
2018-03-04T07:20:36.893Z,600
2018-03-04T07:21:37.161Z,605
2018-03-04T07:22:36.922Z,620
2018-03-04T07:23:37.382Z,610
2018-03-04T07:24:36.188Z,625
2018-03-04T07:25:36.974Z,635
2018-03-04T07:26:37.252Z,655
2018-03-04T07:27:37.008Z,660
2018-03-04T07:28:51.688Z,615
2018-03-04T07:29:51.982Z,455
2018-03-04T07:30:51.977Z,280
2018-03-04T07:31:37.330Z,235
2018-03-04T07:32:37.091Z,235
2018-03-04T07:34:37.120Z,255
2018-03-04T07:35:37.139Z,255
2018-03-04T07:36:37.408Z,245
2018-03-04T07:37:37.177Z,260
2018-03-04T07:38:37.439Z,265
2018-03-04T07:39:37.462Z,275
2018-03-04T07:40:37.008Z,270
2018-03-04T07:41:37.237Z,230
2018-03-04T07:42:37.510Z,215
2018-03-04T07:43:37.538Z,200
2018-03-04T07:44:37.541Z,215
2018-03-04T07:45:51.979Z,190
2018-03-04T07:46:52.243Z,190
2018-03-04T07:47:37.336Z,190
2018-03-04T07:48:52.284Z,210
2018-03-04T07:49:37.632Z,215
2018-03-04T07:50:37.135Z,255
2018-03-04T07:51:37.657Z,240
2018-03-04T07:52:38.063Z,230
2018-03-04T07:53:37.435Z,225
2018-03-04T07:54:37.457Z,250
2018-03-04T07:55:37.719Z,250
2018-03-04T07:56:37.738Z,235
2018-03-04T07:57:36.982Z,260
2018-03-04T07:58:51.670Z,235
2018-03-04T07:59:37.939Z,255
2018-03-04T08:00:37.306Z,255
2018-03-04T08:01:52.272Z,255
2018-03-04T08:02:52.249Z,250
2018-03-04T08:03:37.847Z,250
2018-03-04T08:04:52.272Z,235
2018-03-04T08:05:52.288Z,185
2018-03-04T08:06:37.895Z,175
2018-03-04T08:07:37.402Z,145
2018-03-04T08:09:38.040Z,150
2018-03-04T08:10:37.708Z,165
2018-03-04T08:11:38.033Z,160
2018-03-04T08:12:38.038Z,160
2018-03-04T08:13:37.997Z,190
2018-03-04T08:14:38.112Z,215
2018-03-04T08:15:38.039Z,210
2018-03-04T08:16:52.455Z,235
2018-03-04T08:17:52.472Z,235
2018-03-04T08:18:37.937Z,235
2018-03-04T08:19:38.088Z,235
2018-03-04T08:20:37.841Z,230
2018-03-04T08:22:38.135Z,235
2018-03-04T08:23:38.141Z,240
2018-03-04T08:24:52.829Z,245
2018-03-04T08:26:38.179Z,220
2018-03-04T08:27:38.197Z,200
2018-03-04T08:28:38.476Z,210
2018-03-04T08:29:38.229Z,160
2018-03-04T08:30:52.655Z,145
2018-03-04T08:31:52.924Z,150
2018-03-04T08:32:38.272Z,150
2018-03-04T08:33:38.287Z,145
2018-03-04T08:34:52.969Z,160
2018-03-04T08:36:38.348Z,170
2018-03-04T08:37:38.352Z,185
2018-03-04T08:38:38.100Z,255
2018-03-04T08:39:38.495Z,260
2018-03-04T08:40:38.449Z,265
2018-03-04T08:41:53.079Z,260
2018-03-04T08:42:38.416Z,260
2018-03-04T08:43:38.429Z,250
2018-03-04T08:44:38.444Z,240
2018-03-04T08:45:53.132Z,230
2018-03-04T08:46:38.217Z,225
2018-03-04T08:47:38.486Z,220
2018-03-04T08:48:38.503Z,220
2018-03-04T08:49:53.199Z,225
2018-03-04T08:50:53.289Z,220
2018-03-04T08:51:38.563Z,220
2018-03-04T08:52:38.567Z,220
2018-03-04T08:54:38.609Z,220
2018-03-04T08:55:38.610Z,220
2018-03-04T08:56:38.372Z,220
2018-03-04T08:57:38.127Z,220
2018-03-04T08:58:38.654Z,220
2018-03-04T08:59:38.674Z,220
2018-03-04T09:00:38.424Z,215
2018-03-04T09:01:38.706Z,210
2018-03-04T09:02:38.718Z,210
2018-03-04T09:03:38.809Z,215
2018-03-04T09:04:38.498Z,215
2018-03-04T09:05:53.426Z,215
2018-03-04T09:06:53.181Z,215
2018-03-04T09:07:38.534Z,215
2018-03-04T09:08:38.923Z,215
2018-03-04T09:09:38.920Z,215
2018-03-04T09:10:53.497Z,215
2018-03-04T09:11:38.348Z,215
2018-03-04T09:12:38.859Z,210
2018-03-04T09:13:38.885Z,210
2018-03-04T09:14:38.634Z,210
2018-03-04T09:15:38.912Z,210
2018-03-04T09:16:38.674Z,210
2018-03-04T09:17:38.690Z,210
2018-03-04T09:18:38.444Z,210
2018-03-04T09:19:38.735Z,210
2018-03-04T09:20:39.000Z,210
2018-03-04T09:21:53.719Z,205
2018-03-04T09:22:39.020Z,205
2018-03-04T09:23:53.705Z,200
2018-03-04T09:24:39.049Z,200
2018-03-04T09:25:39.316Z,195
2018-03-04T09:27:39.099Z,195
2018-03-04T09:28:38.883Z,195
2018-03-04T09:29:39.126Z,200
2018-03-04T09:30:39.144Z,200
2018-03-04T09:31:39.161Z,200
2018-03-04T09:32:38.922Z,200
2018-03-04T09:33:39.248Z,205
2018-03-04T09:34:38.690Z,205
2018-03-04T09:35:38.962Z,210
2018-03-04T09:36:39.241Z,210
2018-03-04T09:37:53.916Z,210
2018-03-04T09:38:39.284Z,215
2018-03-04T09:39:39.283Z,215
2018-03-04T09:40:39.036Z,215
2018-03-04T09:41:39.306Z,215
2018-03-04T09:42:39.320Z,210
2018-03-04T09:43:39.337Z,210
2018-03-04T09:45:39.530Z,205
2018-03-04T09:46:54.056Z,205
2018-03-04T09:47:39.412Z,205
2018-03-04T09:48:39.421Z,210
2018-03-04T09:50:39.188Z,200
2018-03-04T09:51:39.206Z,200
2018-03-04T09:52:54.149Z,195
2018-03-04T09:54:08.833Z,195
2018-03-04T09:54:39.513Z,195
2018-03-04T09:55:54.192Z,195
2018-03-04T09:56:39.547Z,195
2018-03-04T09:58:39.575Z,190
2018-03-04T09:59:39.588Z,195
2018-03-04T10:00:39.602Z,195
2018-03-04T10:01:39.386Z,200
2018-03-04T10:02:39.632Z,200
2018-03-04T10:03:39.645Z,200
2018-03-04T10:04:39.153Z,200
2018-03-04T10:05:54.089Z,205
2018-03-04T10:06:39.690Z,205
2018-03-04T10:07:39.712Z,200
2018-03-04T10:08:54.157Z,195
2018-03-04T10:09:54.150Z,190
2018-03-04T10:10:39.497Z,190
2018-03-04T10:11:54.437Z,190
2018-03-04T10:12:39.538Z,190
2018-03-04T10:13:39.806Z,190
2018-03-04T10:14:39.051Z,190
2018-03-04T10:15:39.576Z,195
2018-03-04T10:16:39.592Z,195
2018-03-04T10:17:39.912Z,195
2018-03-04T10:18:39.628Z,195
2018-03-04T10:19:39.648Z,195
2018-03-04T10:20:54.626Z,195
2018-03-04T10:21:54.600Z,200
2018-03-04T10:22:39.430Z,195
2018-03-04T10:23:39.700Z,200
2018-03-04T10:24:54.648Z,195
2018-03-04T10:25:54.403Z,195
2018-03-04T10:26:40.005Z,185
2018-03-04T10:27:40.020Z,180
2018-03-04T10:28:39.779Z,180
2018-03-04T10:29:39.796Z,180
2018-03-04T10:30:39.558Z,175
2018-03-04T10:31:39.937Z,175
2018-03-04T10:32:40.097Z,175
2018-03-04T10:33:39.856Z,175
2018-03-04T10:34:39.869Z,175
2018-03-04T10:35:39.884Z,175
2018-03-04T10:36:39.903Z,175
2018-03-04T10:37:39.667Z,180
2018-03-04T10:38:39.937Z,185
2018-03-04T10:39:40.236Z,185
2018-03-04T10:40:54.886Z,180
2018-03-04T10:41:40.235Z,180
2018-03-04T10:42:54.915Z,180
2018-03-04T10:43:39.756Z,180
2018-03-04T10:44:54.687Z,180
2018-03-04T10:45:40.296Z,180
2018-03-04T10:46:40.305Z,180
2018-03-04T10:47:40.333Z,175
2018-03-04T10:48:40.087Z,170
2018-03-04T10:49:40.106Z,170
2018-03-04T10:50:40.107Z,165
2018-03-04T10:51:40.389Z,160
2018-03-04T10:52:40.570Z,155
2018-03-04T10:53:40.417Z,155
2018-03-04T10:54:40.184Z,155
2018-03-04T10:55:55.106Z,150
2018-03-04T10:56:55.120Z,150
2018-03-04T10:57:40.214Z,145
2018-03-04T10:58:55.159Z,145
2018-03-04T10:59:40.496Z,145
2018-03-04T11:00:55.180Z,145
2018-03-04T11:02:55.206Z,140
2018-03-04T11:03:40.559Z,135
2018-03-04T11:04:40.313Z,135
2018-03-04T11:05:40.335Z,135
2018-03-04T11:06:40.599Z,140
2018-03-04T11:07:55.285Z,130
2018-03-04T11:08:40.626Z,130
2018-03-04T11:09:55.058Z,130
2018-03-04T11:10:40.401Z,130
2018-03-04T11:11:40.767Z,130
2018-03-04T11:12:55.093Z,125
2018-03-04T11:13:55.367Z,125
2018-03-04T11:14:40.718Z,120
2018-03-04T11:15:55.415Z,125
2018-03-04T11:16:40.762Z,125
2018-03-04T11:17:40.760Z,125
2018-03-04T11:19:40.533Z,125
2018-03-04T11:20:40.546Z,125
2018-03-04T11:21:40.819Z,125
2018-03-04T11:22:40.582Z,125
2018-03-04T11:23:40.840Z,125
2018-03-04T11:24:40.599Z,125
2018-03-04T11:25:40.886Z,125
2018-03-04T11:26:40.737Z,125
2018-03-04T11:27:55.569Z,125
2018-03-04T11:28:41.193Z,125
2018-03-04T11:29:40.926Z,125
2018-03-04T11:30:40.437Z,125
2018-03-04T11:31:40.702Z,120
2018-03-04T11:32:40.201Z,120
2018-03-04T11:33:40.988Z,120
2018-03-04T11:34:40.742Z,120
2018-03-04T11:35:40.502Z,120
2018-03-04T11:36:40.771Z,120
2018-03-04T11:37:55.457Z,120
2018-03-04T11:38:40.549Z,120
2018-03-04T11:39:41.071Z,120
2018-03-04T11:40:40.574Z,120
2018-03-04T11:41:40.588Z,120
2018-03-04T11:42:40.855Z,120
2018-03-04T11:43:40.878Z,120
2018-03-04T11:44:55.299Z,120
2018-03-04T11:45:40.645Z,120
2018-03-04T11:46:40.408Z,120
2018-03-04T11:47:55.862Z,120
2018-03-04T11:48:55.864Z,120
2018-03-04T11:49:41.242Z,120
2018-03-04T11:50:40.976Z,120
2018-03-04T11:52:41.258Z,120
2018-03-04T11:53:41.012Z,120
2018-03-04T11:54:55.972Z,120
2018-03-04T11:55:41.318Z,120
2018-03-04T11:56:41.318Z,120
2018-03-04T11:57:41.340Z,120
2018-03-04T11:58:41.091Z,120
2018-03-04T12:00:41.380Z,120
2018-03-04T12:01:55.798Z,115
2018-03-04T12:02:56.069Z,115
2018-03-04T12:03:41.417Z,115
2018-03-04T12:04:41.428Z,115
2018-03-04T12:07:41.218Z,115
2018-03-04T12:08:41.492Z,115
2018-03-04T12:09:56.196Z,115
2018-03-04T12:10:41.268Z,115
2018-03-04T12:11:56.206Z,115
2018-03-04T12:12:41.604Z,115
2018-03-04T12:13:41.560Z,115
2018-03-04T12:14:41.637Z,115
2018-03-04T12:15:56.263Z,115
2018-03-04T12:16:41.618Z,110
2018-03-04T12:17:41.620Z,110
2018-03-04T12:18:41.639Z,110
2018-03-04T12:19:41.139Z,110
2018-03-04T12:21:41.439Z,110
2018-03-04T12:22:41.703Z,110
2018-03-04T12:23:41.457Z,110
2018-03-04T12:24:41.467Z,115
2018-03-04T12:25:41.225Z,115
2018-03-04T12:26:41.759Z,115
2018-03-04T12:27:41.763Z,115
2018-03-04T12:28:41.780Z,115
2018-03-04T12:29:41.801Z,115
2018-03-04T12:30:41.813Z,115
2018-03-04T12:31:56.517Z,115
2018-03-04T12:32:41.837Z,115
2018-03-04T12:33:56.527Z,115
2018-03-04T12:34:41.870Z,115
2018-03-04T12:35:41.883Z,115
2018-03-04T12:36:41.931Z,115
2018-03-04T12:38:41.934Z,115
2018-03-04T12:39:41.943Z,115
2018-03-04T12:40:41.703Z,115
2018-03-04T12:41:41.970Z,115
2018-03-04T12:42:42.089Z,115
2018-03-04T12:43:41.999Z,115
2018-03-04T12:44:42.022Z,115
2018-03-04T12:45:42.029Z,115
2018-03-04T12:46:42.091Z,115
2018-03-04T12:47:56.729Z,115
2018-03-04T12:48:42.113Z,115
2018-03-04T12:49:41.835Z,115
2018-03-04T12:50:42.107Z,115
2018-03-04T12:51:42.121Z,115
2018-03-04T12:52:42.145Z,115
2018-03-04T12:53:41.635Z,115
2018-03-04T12:54:41.910Z,115
2018-03-04T12:56:41.704Z,115
2018-03-04T12:57:41.730Z,115
2018-03-04T12:58:42.390Z,115
2018-03-04T12:59:41.982Z,115
2018-03-04T13:00:56.761Z,115
2018-03-04T13:01:42.264Z,115
2018-03-04T13:02:56.944Z,115
2018-03-04T13:03:42.047Z,115
2018-03-04T13:04:42.310Z,115
2018-03-04T13:05:42.323Z,115
2018-03-04T13:06:42.350Z,115
2018-03-04T13:07:42.354Z,115
2018-03-04T13:08:42.123Z,115
2018-03-04T13:09:42.127Z,115
2018-03-04T13:10:42.406Z,115
2018-03-04T13:13:42.188Z,115
2018-03-04T13:14:42.204Z,110
2018-03-04T13:15:42.283Z,105
2018-03-04T13:16:42.245Z,110
2018-03-04T13:17:42.346Z,115
2018-03-04T13:18:57.184Z,115
2018-03-04T13:19:56.944Z,110
2018-03-04T13:20:42.551Z,110
2018-03-04T13:21:42.051Z,110
2018-03-04T13:22:42.329Z,110
2018-03-04T13:24:42.203Z,110
2018-03-04T13:25:42.623Z,110
2018-03-04T13:26:57.052Z,110
2018-03-04T13:27:42.660Z,110
2018-03-04T13:28:42.450Z,110
2018-03-04T13:29:42.423Z,110
2018-03-04T13:30:56.853Z,110
2018-03-04T13:31:42.195Z,110
2018-03-04T13:32:42.471Z,110
2018-03-04T13:33:42.735Z,110
2018-03-04T13:34:57.169Z,110
2018-03-04T13:35:42.514Z,110
2018-03-04T13:36:42.273Z,110
2018-03-04T13:38:57.476Z,110
2018-03-04T13:39:42.840Z,110
2018-03-04T13:40:57.553Z,110
2018-03-04T13:41:42.612Z,110
2018-03-04T13:42:42.876Z,105
2018-03-04T13:43:57.561Z,105
2018-03-04T13:44:42.391Z,105
2018-03-04T13:45:42.662Z,105
2018-03-04T13:46:42.499Z,105
2018-03-04T13:47:42.946Z,105
2018-03-04T13:48:57.631Z,105
2018-03-04T13:49:42.992Z,105
2018-03-04T13:51:12.335Z,105
2018-03-04T13:51:57.678Z,105
2018-03-04T13:52:57.720Z,105
2018-03-04T13:53:43.043Z,105
2018-03-04T13:54:43.054Z,105
2018-03-04T13:55:42.822Z,105
2018-03-04T13:56:43.085Z,105
2018-03-04T13:57:43.106Z,105
2018-03-04T13:58:42.863Z,105
2018-03-04T13:59:43.131Z,105
2018-03-04T14:00:43.143Z,105
2018-03-04T14:01:43.168Z,105
2018-03-04T14:02:43.178Z,105
2018-03-04T14:03:57.857Z,105
2018-03-04T14:04:57.874Z,105
2018-03-04T14:05:42.962Z,105
2018-03-04T14:06:57.645Z,100
2018-03-04T14:07:57.661Z,100
2018-03-04T14:09:43.023Z,100
2018-03-04T14:11:43.308Z,100
2018-03-04T14:12:42.815Z,100
2018-03-04T14:13:43.440Z,105
2018-03-04T14:14:43.357Z,100
2018-03-04T14:15:43.370Z,100
2018-03-04T14:16:58.087Z,100
2018-03-04T14:17:43.400Z,100
2018-03-04T14:18:58.083Z,100
2018-03-04T14:19:57.840Z,100
2018-03-04T14:20:43.451Z,100
2018-03-04T14:21:43.459Z,100
2018-03-04T14:22:58.143Z,100
2018-03-04T14:23:43.491Z,95
2018-03-04T14:24:43.518Z,95
2018-03-04T14:25:58.217Z,95
2018-03-04T14:26:43.279Z,95
2018-03-04T14:27:43.551Z,95
2018-03-04T14:28:43.312Z,95
2018-03-04T14:30:43.340Z,95
2018-03-04T14:31:43.354Z,95
2018-03-04T14:32:43.631Z,95
2018-03-04T14:33:42.873Z,95
2018-03-04T14:34:43.403Z,95
2018-03-04T14:35:43.675Z,95
2018-03-04T14:36:43.425Z,90
2018-03-04T14:38:58.383Z,90
2018-03-04T14:39:43.480Z,90
2018-03-04T14:40:43.233Z,90
2018-03-04T14:41:43.758Z,90
2018-03-04T14:42:43.778Z,90
2018-03-04T14:43:43.546Z,90
2018-03-04T14:44:58.480Z,90
2018-03-04T14:45:43.925Z,90
2018-03-04T14:47:43.854Z,90
2018-03-04T14:48:43.611Z,85
2018-03-04T14:49:43.628Z,85
2018-03-04T14:50:58.308Z,85
2018-03-04T14:51:43.908Z,85
2018-03-04T14:52:58.592Z,85
2018-03-04T14:53:58.606Z,85
2018-03-04T14:54:58.620Z,85
2018-03-04T14:55:43.719Z,85
2018-03-04T14:56:44.040Z,85
2018-03-04T14:57:43.751Z,85
2018-03-04T14:58:44.026Z,80
2018-03-04T14:59:44.033Z,80
2018-03-04T15:00:43.792Z,80
2018-03-04T15:01:43.808Z,80
2018-03-04T15:02:43.567Z,80
2018-03-04T15:03:44.098Z,80
2018-03-04T15:04:44.114Z,80
2018-03-04T15:05:43.883Z,80
2018-03-04T15:06:44.141Z,80